Time;durP1;ratioP1;P1;durP2;ratioP2;P2;SDS_P1;SDS_P2;PMS_P1;PMS_P2;Temp;Humidity;BMP_temperature;BMP_pressure;BME280_temperature;BME280_humidity;BME280_pressure;Samples;Min_cycle;Max_cycle;Signal;HPM_P1;HPM_P2
2021/07/22 00:01:06;;;;;;;8.00;7.20;;;19.00;93.70;;;;;;6221707;23;20900;-84
2021/07/22 00:03:33;;;;;;;8.20;7.50;;;19.00;94.20;;;;;;6221511;23;20410;-84
2021/07/22 00:06:01;;;;;;;8.70;7.90;;;19.00;94.80;;;;;;6222043;23;20826;-84
2021/07/22 00:08:29;;;;;;;9.07;8.17;;;19.00;95.00;;;;;;6221527;23;20433;-85
2021/07/22 00:10:56;;;;;;;8.03;7.23;;;18.90;95.00;;;;;;6221404;23;20438;-84
2021/07/22 00:13:23;;;;;;;8.90;7.93;;;18.90;94.40;;;;;;6221625;23;20405;-84
2021/07/22 00:15:50;;;;;;;8.63;7.83;;;18.90;94.20;;;;;;6223304;23;20407;-84
2021/07/22 00:18:16;;;;;;;8.30;7.47;;;18.90;94.30;;;;;;6225692;23;20431;-84
2021/07/22 00:20:43;;;;;;;9.13;7.50;;;18.80;94.20;;;;;;6231308;23;20738;-80
2021/07/22 00:23:12;;;;;;;7.97;7.23;;;18.80;94.40;;;;;;6232806;23;20401;-82
2021/07/22 00:25:40;;;;;;;8.83;7.30;;;18.80;94.30;;;;;;6233826;23;20536;-83
2021/07/22 00:28:07;;;;;;;8.97;7.37;;;18.70;94.60;;;;;;6233576;23;20439;-81
2021/07/22 00:30:34;;;;;;;9.07;8.17;;;18.70;95.10;;;;;;6233807;23;20511;-81
2021/07/22 00:33:01;;;;;;;8.87;8.00;;;18.70;95.60;;;;;;6231799;23;20482;-83
2021/07/22 00:35:28;;;;;;;8.73;7.83;;;18.60;96.50;;;;;;6227547;23;20949;-84
2021/07/22 00:37:55;;;;;;;8.33;7.53;;;18.70;96.90;;;;;;6222969;23;20432;-84
2021/07/22 00:40:22;;;;;;;10.03;7.50;;;18.60;97.10;;;;;;6222827;23;20418;-84
2021/07/22 00:42:57;;;;;;;8.30;7.60;;;18.60;97.20;;;;;;6221940;23;20416;-84
2021/07/22 00:45:24;;;;;;;8.27;7.47;;;18.60;97.80;;;;;;6221124;23;20411;-84
2021/07/22 00:47:51;;;;;;;8.23;7.40;;;18.50;98.00;;;;;;6220788;23;21016;-84
2021/07/22 00:50:18;;;;;;;8.37;7.67;;;18.40;98.20;;;;;;6221107;23;20404;-84
2021/07/22 00:52:45;;;;;;;7.87;7.17;;;18.40;98.20;;;;;;6221789;23;20411;-84
2021/07/22 00:55:14;;;;;;;6.70;6.10;;;18.30;98.00;;;;;;6229562;23;20417;-82
2021/07/22 00:57:41;;;;;;;7.03;6.40;;;18.30;97.60;;;;;;6230325;23;20431;-82
2021/07/22 01:00:10;;;;;;;7.00;6.40;;;18.30;97.70;;;;;;6230844;23;20412;-82
2021/07/22 01:02:37;;;;;;;7.90;7.20;;;18.20;97.70;;;;;;6232150;23;20407;-84
2021/07/22 01:05:05;;;;;;;7.67;6.97;;;18.20;98.00;;;;;;6231370;23;20463;-80
2021/07/22 01:07:32;;;;;;;9.97;8.07;;;18.10;98.30;;;;;;6231725;23;20448;-81
2021/07/22 01:09:58;;;;;;;8.60;7.80;;;18.10;98.50;;;;;;6233403;23;20415;-81
2021/07/22 01:12:25;;;;;;;8.93;8.23;;;18.10;98.70;;;;;;6232775;23;20502;-81
2021/07/22 01:14:52;;;;;;;8.57;7.77;;;18.00;99.50;;;;;;6232950;23;20416;-80
2021/07/22 01:17:29;;;;;;;9.03;7.60;;;18.00;99.80;;;;;;6232469;23;20404;-81
2021/07/22 01:19:56;;;;;;;11.60;7.63;;;18.00;99.90;;;;;;6233605;23;20426;-83
2021/07/22 01:22:24;;;;;;;10.60;7.73;;;18.00;99.90;;;;;;6231938;23;20486;-81
2021/07/22 01:24:50;;;;;;;8.03;7.23;;;18.00;99.90;;;;;;6233001;23;20949;-80
2021/07/22 01:27:17;;;;;;;10.07;8.23;;;18.00;99.90;;;;;;6232777;23;20450;-82
2021/07/22 01:29:44;;;;;;;8.10;7.47;;;17.90;99.90;;;;;;6232950;23;21106;-82
2021/07/22 01:32:11;;;;;;;9.53;7.67;;;18.00;99.90;;;;;;6231171;23;20411;-82
2021/07/22 01:34:37;;;;;;;10.00;7.53;;;17.90;99.90;;;;;;6228237;23;20418;-84
2021/07/22 01:37:04;;;;;;;11.50;7.60;;;17.90;99.90;;;;;;6227666;23;20412;-84
2021/07/22 01:39:32;;;;;;;10.10;8.90;;;17.80;99.90;;;;;;6228880;23;20428;-82
2021/07/22 01:42:00;;;;;;;9.73;7.97;;;17.70;99.90;;;;;;6227213;23;20900;-83
2021/07/22 01:44:26;;;;;;;8.07;7.23;;;17.70;99.90;;;;;;6224377;23;20506;-83
2021/07/22 01:46:53;;;;;;;11.10;7.50;;;17.70;99.90;;;;;;6222053;23;20452;-84
2021/07/22 01:49:20;;;;;;;10.20;9.20;;;17.70;99.90;;;;;;6221409;23;20510;-84
2021/07/22 01:51:47;;;;;;;7.37;6.57;;;17.60;99.90;;;;;;6221879;23;20439;-84
2021/07/22 01:54:13;;;;;;;9.40;8.33;;;17.50;99.90;;;;;;6221588;23;20411;-84
2021/07/22 01:56:41;;;;;;;8.97;8.10;;;17.50;99.90;;;;;;6222294;23;20415;-84
2021/07/22 01:59:08;;;;;;;10.90;7.77;;;17.50;99.90;;;;;;6222012;23;20428;-84
2021/07/22 02:01:35;;;;;;;8.43;7.37;;;17.50;99.90;;;;;;6221457;23;20412;-84
2021/07/22 02:04:02;;;;;;;8.13;7.03;;;17.50;99.90;;;;;;6221633;23;20413;-84
2021/07/22 02:06:30;;;;;;;8.57;7.87;;;17.50;99.90;;;;;;6221309;23;20456;-84
2021/07/22 02:08:57;;;;;;;9.23;7.53;;;17.50;99.90;;;;;;6220665;23;20435;-84
2021/07/22 02:11:24;;;;;;;7.67;6.97;;;17.50;99.90;;;;;;6221404;23;20926;-84
2021/07/22 02:13:52;;;;;;;9.00;8.10;;;17.50;99.90;;;;;;6221472;23;20420;-83
2021/07/22 02:16:19;;;;;;;8.30;7.50;;;17.50;99.90;;;;;;6221346;23;20419;-82
2021/07/22 02:18:46;;;;;;;8.67;7.77;;;17.50;99.90;;;;;;6221331;23;20438;-84
2021/07/22 02:21:12;;;;;;;9.43;7.03;;;17.50;99.90;;;;;;6221764;23;20408;-83
2021/07/22 02:23:39;;;;;;;10.83;7.83;;;17.50;99.90;;;;;;6221072;23;20409;-82
2021/07/22 02:26:06;;;;;;;8.80;7.67;;;17.50;99.90;;;;;;6221412;23;20411;-84
2021/07/22 02:28:34;;;;;;;8.50;7.40;;;17.50;99.90;;;;;;6221135;23;20451;-82
2021/07/22 02:31:03;;;;;;;9.00;8.10;;;17.50;99.90;;;;;;6221506;23;20422;-84
2021/07/22 02:33:29;;;;;;;9.33;8.50;;;17.50;99.90;;;;;;6221235;23;20422;-83
2021/07/22 02:35:56;;;;;;;10.40;7.97;;;17.50;99.90;;;;;;6219772;23;20418;-84
2021/07/22 02:38:23;;;;;;;9.80;7.63;;;17.50;99.90;;;;;;6220206;23;20429;-83
2021/07/22 02:40:50;;;;;;;10.03;9.00;;;17.50;99.90;;;;;;6220780;23;20420;-84
2021/07/22 02:43:17;;;;;;;8.33;7.50;;;17.40;99.90;;;;;;6220905;23;20411;-84
2021/07/22 02:45:43;;;;;;;8.40;7.20;;;17.40;99.90;;;;;;6221025;23;20922;-82
2021/07/22 02:48:12;;;;;;;8.57;7.70;;;17.40;99.90;;;;;;6221581;23;20451;-84
2021/07/22 02:50:38;;;;;;;8.97;8.07;;;17.40;99.90;;;;;;6220928;23;20494;-84
2021/07/22 02:53:05;;;;;;;8.33;7.57;;;17.40;99.90;;;;;;6221329;23;20412;-84
2021/07/22 02:55:32;;;;;;;8.83;8.00;;;17.40;99.90;;;;;;6220908;23;20408;-84
2021/07/22 02:58:05;;;;;;;8.40;7.60;;;17.30;99.90;;;;;;6221152;23;20424;-84
2021/07/22 03:00:32;;;;;;;8.63;7.70;;;17.20;99.90;;;;;;6221294;23;20451;-84
2021/07/22 03:03:01;;;;;;;9.27;8.37;;;17.20;99.90;;;;;;6220904;23;20415;-84
2021/07/22 03:05:30;;;;;;;9.70;8.87;;;17.20;99.90;;;;;;6220969;23;20458;-83
2021/07/22 03:07:57;;;;;;;9.53;8.67;;;17.20;99.90;;;;;;6221124;23;20480;-84
2021/07/22 03:10:24;;;;;;;10.03;8.43;;;17.20;99.90;;;;;;6220932;23;20412;-84
2021/07/22 03:12:51;;;;;;;8.53;7.73;;;17.10;99.90;;;;;;6220450;23;20734;-84
2021/07/22 03:15:17;;;;;;;8.30;7.40;;;17.10;99.90;;;;;;6220726;23;20423;-84
2021/07/22 03:17:44;;;;;;;9.60;8.70;;;17.00;99.90;;;;;;6220646;23;20435;-82
2021/07/22 03:20:12;;;;;;;9.20;7.90;;;17.00;99.90;;;;;;6220459;23;20415;-84
2021/07/22 03:22:41;;;;;;;9.03;7.97;;;17.00;99.90;;;;;;6220082;23;20407;-84
2021/07/22 03:25:09;;;;;;;8.50;7.80;;;16.90;99.90;;;;;;6220707;23;20416;-84
2021/07/22 03:27:35;;;;;;;8.57;7.77;;;16.80;99.90;;;;;;6222118;23;20453;-84
2021/07/22 03:30:02;;;;;;;8.63;7.73;;;16.80;99.90;;;;;;6227704;23;20414;-83
2021/07/22 03:32:29;;;;;;;8.90;7.30;;;16.80;99.90;;;;;;6227076;23;20418;-83
2021/07/22 03:34:55;;;;;;;7.87;7.27;;;16.80;99.90;;;;;;6221671;23;20887;-84
2021/07/22 03:37:22;;;;;;;8.10;7.30;;;16.80;99.90;;;;;;6221030;23;20414;-84
2021/07/22 03:39:50;;;;;;;7.57;6.87;;;16.70;99.90;;;;;;6220322;23;20443;-84
2021/07/22 03:42:17;;;;;;;10.00;7.90;;;16.70;99.90;;;;;;6220825;23;20411;-84
2021/07/22 03:44:44;;;;;;;7.60;7.00;;;16.80;99.90;;;;;;6220144;23;20411;-84
2021/07/22 03:47:10;;;;;;;9.50;7.83;;;16.70;99.90;;;;;;6220202;23;20446;-84
2021/07/22 03:49:37;;;;;;;9.80;8.23;;;16.70;99.90;;;;;;6219895;23;21025;-84
2021/07/22 03:52:04;;;;;;;7.70;7.00;;;16.70;99.90;;;;;;6219904;23;20414;-84
2021/07/22 03:54:31;;;;;;;9.00;8.20;;;16.70;99.90;;;;;;6220304;23;20410;-84
2021/07/22 03:57:02;;;;;;;8.43;7.43;;;16.70;99.90;;;;;;6219776;23;20899;-84
2021/07/22 03:59:28;;;;;;;8.83;7.93;;;16.60;99.90;;;;;;6220759;23;20430;-84
2021/07/22 04:01:55;;;;;;;8.90;8.10;;;16.70;99.90;;;;;;6220671;23;20416;-83
2021/07/22 04:04:22;;;;;;;8.13;7.43;;;16.70;99.90;;;;;;6220682;23;20415;-84
2021/07/22 04:06:49;;;;;;;9.57;8.70;;;16.60;99.90;;;;;;6220212;23;20452;-84
2021/07/22 04:09:15;;;;;;;8.07;7.40;;;16.60;99.90;;;;;;6220488;23;20431;-84
2021/07/22 04:11:42;;;;;;;9.50;8.53;;;16.60;99.90;;;;;;6219946;23;20414;-84
2021/07/22 04:14:10;;;;;;;10.03;9.03;;;16.60;99.90;;;;;;6220292;23;20410;-84
2021/07/22 04:16:37;;;;;;;8.90;7.83;;;16.60;99.90;;;;;;6220398;23;20462;-84
2021/07/22 04:19:04;;;;;;;9.13;8.30;;;16.60;99.90;;;;;;6220643;23;20431;-84
2021/07/22 04:21:31;;;;;;;8.03;7.20;;;16.60;99.90;;;;;;6220137;23;20413;-84
2021/07/22 04:23:57;;;;;;;9.83;8.57;;;16.60;99.90;;;;;;6220106;23;20771;-82
2021/07/22 04:26:24;;;;;;;8.67;7.73;;;16.60;99.90;;;;;;6220754;23;20737;-84
2021/07/22 04:28:52;;;;;;;8.33;7.60;;;16.60;99.90;;;;;;6219849;23;20455;-84
2021/07/22 04:31:20;;;;;;;8.60;7.53;;;16.60;99.90;;;;;;6220370;23;20794;-84
2021/07/22 04:33:47;;;;;;;10.40;9.10;;;16.70;99.90;;;;;;6220032;23;20434;-84
2021/07/22 04:36:15;;;;;;;8.10;7.33;;;16.70;99.90;;;;;;6220352;23;20411;-84
2021/07/22 04:38:41;;;;;;;9.70;8.80;;;16.70;99.90;;;;;;6219890;23;20449;-84
2021/07/22 04:41:08;;;;;;;8.73;7.80;;;16.80;99.90;;;;;;6219677;23;20426;-84
2021/07/22 04:43:35;;;;;;;7.90;7.20;;;16.80;99.90;;;;;;6219582;23;20429;-84
2021/07/22 04:46:02;;;;;;;8.43;7.70;;;16.80;99.90;;;;;;6219717;23;20419;-84
2021/07/22 04:48:31;;;;;;;9.07;7.70;;;16.80;99.90;;;;;;6219747;23;20459;-83
2021/07/22 04:50:58;;;;;;;8.47;7.60;;;16.90;99.90;;;;;;6221418;23;20415;-83
2021/07/22 04:53:25;;;;;;;10.10;9.07;;;16.90;99.90;;;;;;6221485;23;20415;-83
2021/07/22 04:55:51;;;;;;;10.13;9.13;;;16.90;99.90;;;;;;6221303;23;20758;-83
2021/07/22 04:58:18;;;;;;;9.70;8.70;;;17.00;99.90;;;;;;6222156;23;20427;-82
2021/07/22 05:00:45;;;;;;;8.27;7.57;;;17.00;99.90;;;;;;6221020;23;20891;-83
2021/07/22 05:03:12;;;;;;;8.67;7.87;;;17.00;99.90;;;;;;6221292;23;20419;-83
2021/07/22 05:05:40;;;;;;;10.50;7.97;;;17.10;99.90;;;;;;6221414;23;20416;-82
2021/07/22 05:08:06;;;;;;;11.70;9.27;;;17.10;99.90;;;;;;6222848;23;20781;-83
2021/07/22 05:10:33;;;;;;;10.30;9.00;;;17.20;99.90;;;;;;6223530;23;20419;-83
2021/07/22 05:13:00;;;;;;;13.83;10.30;;;17.20;99.90;;;;;;6223478;23;20487;-84
2021/07/22 05:15:28;;;;;;;9.07;8.17;;;17.20;99.90;;;;;;6223279;23;20507;-83
2021/07/22 05:17:55;;;;;;;10.30;8.90;;;17.30;99.90;;;;;;6223248;23;20454;-83
2021/07/22 05:20:22;;;;;;;11.43;10.10;;;17.30;99.90;;;;;;6223597;23;20412;-84
2021/07/22 05:22:50;;;;;;;9.40;8.40;;;17.30;99.90;;;;;;6223367;23;20415;-82
2021/07/22 05:25:17;;;;;;;10.23;9.30;;;17.30;99.90;;;;;;6223752;23;20501;-83
2021/07/22 05:27:44;;;;;;;10.80;8.33;;;17.40;99.90;;;;;;6223521;23;20450;-83
2021/07/22 05:30:12;;;;;;;11.13;8.83;;;17.50;99.90;;;;;;6223479;23;20412;-82
2021/07/22 05:32:39;;;;;;;9.50;8.57;;;17.50;99.90;;;;;;6222432;23;20422;-82
2021/07/22 05:35:07;;;;;;;11.17;10.07;;;17.60;99.90;;;;;;6223097;23;20470;-84
2021/07/22 05:37:33;;;;;;;11.50;9.77;;;17.60;99.90;;;;;;6223256;23;20415;-84
2021/07/22 05:40:01;;;;;;;10.57;9.20;;;17.60;99.90;;;;;;6223032;23;20416;-83
2021/07/22 05:42:28;;;;;;;14.90;12.33;;;17.70;99.90;;;;;;6223504;23;20746;-83
2021/07/22 05:44:55;;;;;;;12.33;10.57;;;17.70;99.90;;;;;;6223603;23;20401;-83
2021/07/22 05:47:21;;;;;;;13.03;11.40;;;17.80;99.90;;;;;;6222259;23;20479;-83
2021/07/22 05:49:48;;;;;;;16.67;12.97;;;17.90;99.90;;;;;;6221341;23;20467;-83
2021/07/22 05:52:15;;;;;;;15.67;12.20;;;18.00;99.90;;;;;;6220163;23;20388;-83
2021/07/22 05:54:41;;;;;;;14.37;11.50;;;18.00;99.90;;;;;;6220275;23;20411;-83
2021/07/22 05:57:09;;;;;;;13.37;12.07;;;18.10;99.90;;;;;;6220302;23;20412;-83
2021/07/22 05:59:37;;;;;;;13.67;11.90;;;18.10;99.90;;;;;;6221911;23;20432;-83
2021/07/22 06:02:05;;;;;;;14.87;11.57;;;18.20;99.90;;;;;;6222856;23;20420;-83
2021/07/22 06:04:31;;;;;;;12.90;11.70;;;18.30;99.90;;;;;;6222452;23;20420;-82
2021/07/22 06:06:58;;;;;;;25.93;13.10;;;18.40;99.90;;;;;;6223459;23;20408;-82
2021/07/22 06:09:25;;;;;;;13.10;9.97;;;18.50;99.90;;;;;;6227237;23;20394;-81
2021/07/22 06:11:51;;;;;;;13.10;10.83;;;18.60;99.90;;;;;;6225848;23;20408;-81
2021/07/22 06:14:19;;;;;;;21.00;11.77;;;18.70;99.90;;;;;;6224411;23;20401;-83
2021/07/22 06:16:46;;;;;;;11.33;9.83;;;18.80;99.90;;;;;;6224300;23;20404;-82
2021/07/22 06:19:14;;;;;;;13.73;11.83;;;18.90;99.90;;;;;;6223288;23;20799;-82
2021/07/22 06:21:41;;;;;;;13.07;11.80;;;19.00;99.90;;;;;;6219518;23;20405;-82
2021/07/22 06:24:07;;;;;;;13.07;11.70;;;19.10;99.90;;;;;;6218448;23;20412;-81
2021/07/22 06:26:35;;;;;;;13.03;11.70;;;19.20;99.90;;;;;;6219112;23;20408;-82
2021/07/22 06:29:02;;;;;;;15.83;11.47;;;19.20;99.90;;;;;;6220766;23;20475;-81
2021/07/22 06:31:30;;;;;;;11.67;10.43;;;19.30;99.90;;;;;;6220940;23;20512;-81
2021/07/22 06:33:57;;;;;;;10.77;9.73;;;19.30;99.90;;;;;;6220724;23;20418;-82
2021/07/22 06:36:24;;;;;;;13.37;10.03;;;19.30;99.90;;;;;;6221416;23;20409;-82
2021/07/22 06:38:50;;;;;;;11.87;8.63;;;19.30;99.90;;;;;;6220869;23;20432;-82
2021/07/22 06:41:20;;;;;;;10.13;9.23;;;19.40;99.90;;;;;;6220939;23;20408;-82
2021/07/22 06:43:47;;;;;;;10.20;9.20;;;19.40;99.90;;;;;;6221191;23;20408;-82
2021/07/22 06:46:14;;;;;;;11.40;9.63;;;19.60;99.90;;;;;;6221363;23;20474;-82
2021/07/22 06:48:42;;;;;;;9.43;8.60;;;19.70;99.90;;;;;;6220163;23;20461;-82
2021/07/22 06:51:09;;;;;;;10.17;9.17;;;19.70;99.90;;;;;;6220597;23;20923;-82
2021/07/22 06:53:35;;;;;;;9.13;8.23;;;19.90;99.90;;;;;;6220350;23;20409;-82
2021/07/22 06:56:03;;;;;;;9.77;8.87;;;19.90;99.20;;;;;;6221140;23;20413;-82
2021/07/22 06:58:30;;;;;;;10.03;9.03;;;20.00;99.10;;;;;;6220676;23;20421;-82
2021/07/22 07:00:56;;;;;;;12.07;8.60;;;20.00;99.30;;;;;;6220584;23;20416;-80
2021/07/22 07:03:23;;;;;;;10.70;9.50;;;20.10;99.40;;;;;;6220417;23;20730;-82
2021/07/22 07:05:52;;;;;;;8.97;8.07;;;20.10;99.30;;;;;;6220380;23;20408;-82
2021/07/22 07:08:19;;;;;;;10.17;8.50;;;20.20;99.10;;;;;;6220770;23;20787;-82
2021/07/22 07:10:45;;;;;;;10.53;9.40;;;20.30;99.20;;;;;;6219902;23;20409;-82
2021/07/22 07:13:12;;;;;;;11.67;10.63;;;20.40;99.30;;;;;;6220039;23;20414;-81
2021/07/22 07:15:39;;;;;;;10.47;8.77;;;20.40;98.90;;;;;;6220175;23;20723;-82
2021/07/22 07:18:06;;;;;;;9.23;8.33;;;20.50;99.00;;;;;;6220583;23;20481;-82
2021/07/22 07:20:32;;;;;;;11.40;9.53;;;20.60;98.90;;;;;;6220235;23;20417;-82
2021/07/22 07:23:00;;;;;;;11.70;9.57;;;20.60;99.00;;;;;;6219730;23;20423;-81
2021/07/22 07:25:27;;;;;;;11.50;8.23;;;20.70;99.00;;;;;;6220523;23;20414;-82
2021/07/22 07:27:54;;;;;;;10.50;9.50;;;20.70;98.80;;;;;;6220419;23;20453;-82
2021/07/22 07:30:21;;;;;;;10.40;8.13;;;20.80;99.30;;;;;;6220167;23;20411;-82
2021/07/22 07:32:48;;;;;;;9.30;8.40;;;20.90;98.80;;;;;;6220601;23;20410;-82
2021/07/22 07:35:15;;;;;;;10.47;8.83;;;21.00;98.60;;;;;;6219996;23;20407;-82
2021/07/22 07:37:42;;;;;;;11.63;9.70;;;21.10;99.10;;;;;;6221300;23;20437;-81
2021/07/22 07:40:12;;;;;;;10.30;9.30;;;21.10;99.00;;;;;;6231685;23;20410;-80
2021/07/22 07:42:38;;;;;;;8.83;8.00;;;21.20;99.50;;;;;;6229945;23;20425;-81
2021/07/22 07:45:07;;;;;;;10.07;8.70;;;21.20;98.80;;;;;;6224325;23;20413;-81
2021/07/22 07:47:33;;;;;;;8.47;7.47;;;21.30;98.30;;;;;;6220054;23;20416;-82
2021/07/22 07:50:00;;;;;;;9.00;8.27;;;21.40;96.90;;;;;;6220737;23;20396;-82
2021/07/22 07:52:28;;;;;;;8.87;8.07;;;21.40;96.80;;;;;;6220088;23;20407;-82
2021/07/22 07:54:55;;;;;;;9.03;8.10;;;21.50;96.60;;;;;;6220715;23;20751;-82
2021/07/22 07:57:23;;;;;;;9.73;8.83;;;21.60;96.50;;;;;;6219784;23;20409;-81
2021/07/22 07:59:49;;;;;;;9.47;8.67;;;21.70;97.30;;;;;;6220716;23;20766;-81
2021/07/22 08:02:16;;;;;;;11.73;8.80;;;21.80;97.90;;;;;;6220378;23;20403;-82
2021/07/22 08:04:43;;;;;;;9.73;8.37;;;21.90;97.80;;;;;;6220653;23;20406;-82
2021/07/22 08:07:10;;;;;;;10.50;8.97;;;22.00;97.90;;;;;;6220412;23;20412;-82
2021/07/22 08:09:37;;;;;;;8.90;8.10;;;22.10;98.30;;;;;;6219936;23;20469;-82
2021/07/22 08:12:04;;;;;;;9.30;8.60;;;22.20;97.40;;;;;;6220157;23;20422;-82
2021/07/22 08:14:36;;;;;;;10.97;8.73;;;22.30;97.80;;;;;;6220154;23;20409;-82
2021/07/22 08:17:04;;;;;;;9.53;8.60;;;22.50;97.20;;;;;;6221042;23;20397;-82
2021/07/22 08:19:31;;;;;;;9.33;8.53;;;22.60;97.40;;;;;;6220115;23;20826;-82
2021/07/22 08:21:57;;;;;;;9.87;8.93;;;22.60;96.50;;;;;;6219700;23;20414;-82
2021/07/22 08:24:24;;;;;;;9.47;8.57;;;22.70;96.80;;;;;;6220442;23;20420;-82
2021/07/22 08:26:51;;;;;;;11.30;7.73;;;22.80;96.10;;;;;;6221187;23;20405;-83
2021/07/22 08:29:18;;;;;;;9.87;8.87;;;22.90;95.00;;;;;;6223381;23;20504;-82
2021/07/22 08:31:46;;;;;;;9.07;8.20;;;23.10;95.40;;;;;;6219365;23;20988;-82
2021/07/22 08:34:15;;;;;;;9.80;8.97;;;23.20;94.90;;;;;;6220145;23;20408;-82
2021/07/22 08:36:42;;;;;;;9.97;8.97;;;23.30;95.50;;;;;;6220382;23;20503;-82
2021/07/22 08:39:09;;;;;;;12.10;8.30;;;23.30;95.70;;;;;;6220010;23;20487;-82
2021/07/22 08:41:35;;;;;;;9.87;8.93;;;23.50;94.40;;;;;;6219537;23;20435;-82
2021/07/22 08:44:06;;;;;;;8.83;7.93;;;23.60;94.20;;;;;;6222386;23;20448;-82
2021/07/22 08:46:34;;;;;;;10.30;8.67;;;23.70;93.50;;;;;;6222056;23;20400;-82
2021/07/22 08:49:02;;;;;;;8.73;7.90;;;23.70;93.00;;;;;;6221901;23;20449;-82
2021/07/22 08:51:30;;;;;;;9.17;8.37;;;23.80;91.90;;;;;;6221646;23;20409;-83
2021/07/22 08:53:57;;;;;;;8.40;7.73;;;23.90;91.60;;;;;;6222150;23;20466;-82
2021/07/22 08:56:25;;;;;;;9.80;8.80;;;24.00;92.60;;;;;;6222308;23;20900;-83
2021/07/22 08:58:53;;;;;;;9.10;8.20;;;24.10;92.50;;;;;;6221480;23;20425;-83
2021/07/22 09:01:22;;;;;;;8.77;8.10;;;24.20;91.40;;;;;;6221979;23;20413;-82
2021/07/22 09:03:49;;;;;;;10.27;9.37;;;24.20;90.30;;;;;;6221808;23;20409;-83
2021/07/22 09:06:17;;;;;;;8.93;8.13;;;24.10;89.40;;;;;;6221533;23;20482;-83
2021/07/22 09:08:44;;;;;;;7.70;7.00;;;24.20;91.30;;;;;;6222123;23;20444;-83
2021/07/22 09:11:11;;;;;;;8.53;7.63;;;24.20;88.00;;;;;;6222492;23;20413;-82
2021/07/22 09:13:39;;;;;;;8.40;7.53;;;24.30;88.70;;;;;;6221735;23;20419;-83
2021/07/22 09:16:07;;;;;;;7.63;7.03;;;24.30;86.60;;;;;;6222453;23;20404;-83
2021/07/22 09:18:36;;;;;;;8.30;7.50;;;24.40;86.20;;;;;;6221810;23;20417;-83
2021/07/22 09:21:21;;;;;;;9.33;8.63;;;24.40;86.40;;;;;;6221339;23;20410;-83
2021/07/22 09:24:04;;;;;;;8.83;7.70;;;24.50;85.70;;;;;;6221272;23;20385;-82
2021/07/22 09:26:32;;;;;;;9.20;7.97;;;24.60;84.70;;;;;;6221554;23;20389;-83
2021/07/22 09:29:04;;;;;;;9.27;8.37;;;24.70;83.80;;;;;;6221191;23;20457;-82
2021/07/22 09:31:31;;;;;;;8.40;7.63;;;24.80;85.70;;;;;;6220965;23;20415;-82
2021/07/22 09:33:58;;;;;;;8.70;7.97;;;24.80;87.10;;;;;;6221795;23;20410;-83
2021/07/22 09:36:34;;;;;;;8.30;7.60;;;24.90;81.60;;;;;;6222042;23;20406;-83
2021/07/22 09:39:25;;;;;;;8.30;7.60;;;25.10;85.70;;;;;;6221533;23;20509;-83
2021/07/22 09:42:01;;;;;;;10.00;9.10;;;25.20;88.30;;;;;;6220570;23;20771;-82
2021/07/22 09:44:30;;;;;;;8.23;7.53;;;25.30;87.50;;;;;;6221351;23;20439;-83
2021/07/22 09:46:57;;;;;;;6.90;6.30;;;25.30;84.40;;;;;;6221852;23;20411;-83
2021/07/22 09:49:31;;;;;;;7.17;6.57;;;25.40;84.30;;;;;;6220712;23;20512;-81
2021/07/22 09:52:01;;;;;;;9.07;8.17;;;25.50;88.40;;;;;;6220936;23;20420;-82
2021/07/22 09:54:34;;;;;;;8.20;6.80;;;25.40;87.40;;;;;;6220945;23;20449;-82
2021/07/22 09:57:03;;;;;;;10.50;7.93;;;25.60;85.20;;;;;;6221144;23;20401;-82
2021/07/22 09:59:31;;;;;;;8.40;7.60;;;25.70;87.60;;;;;;6221153;23;20485;-82
2021/07/22 10:02:02;;;;;;;9.20;8.30;;;25.80;83.60;;;;;;6221608;23;20435;-82
2021/07/22 10:04:31;;;;;;;9.30;7.30;;;25.90;81.60;;;;;;6222612;23;20399;-82
2021/07/22 10:07:01;;;;;;;8.33;7.63;;;25.90;80.50;;;;;;6221728;23;20441;-83
2021/07/22 10:09:34;;;;;;;9.40;8.60;;;26.00;84.40;;;;;;6221892;23;20509;-83
2021/07/22 10:12:02;;;;;;;7.90;7.20;;;26.10;81.50;;;;;;6220944;23;20716;-83
2021/07/22 10:14:30;;;;;;;8.00;7.20;;;26.20;85.60;;;;;;6221228;23;20415;-83
2021/07/22 10:17:00;;;;;;;8.57;7.50;;;26.40;82.00;;;;;;6220886;23;20454;-83
2021/07/22 10:19:31;;;;;;;9.10;8.17;;;26.40;78.50;;;;;;6221467;23;20432;-83
2021/07/22 10:22:02;;;;;;;10.87;9.97;;;26.40;77.50;;;;;;6221975;23;20404;-83
2021/07/22 10:24:30;;;;;;;7.60;7.00;;;26.40;77.30;;;;;;6221138;23;20397;-83
2021/07/22 10:26:58;;;;;;;8.73;8.10;;;26.50;80.50;;;;;;6221066;23;20412;-83
2021/07/22 10:29:26;;;;;;;8.17;7.50;;;26.60;80.70;;;;;;6220907;23;20449;-83
2021/07/22 10:31:53;;;;;;;8.60;7.80;;;26.70;80.80;;;;;;6220834;23;20405;-82
2021/07/22 10:34:20;;;;;;;9.43;8.63;;;26.80;81.10;;;;;;6221527;23;20420;-83
2021/07/22 10:36:48;;;;;;;8.67;7.87;;;27.00;78.80;;;;;;6221678;23;20475;-83
2021/07/22 10:39:16;;;;;;;9.77;8.77;;;27.10;77.10;;;;;;6220915;23;20428;-83
2021/07/22 10:41:43;;;;;;;9.33;8.57;;;27.30;78.80;;;;;;6221093;23;20738;-83
2021/07/22 10:44:32;;;;;;;8.80;7.63;;;27.50;81.00;;;;;;6221372;23;20411;-83
2021/07/22 10:47:00;;;;;;;9.50;8.50;;;27.70;76.10;;;;;;6221496;23;20392;-83
2021/07/22 10:49:40;;;;;;;9.13;8.40;;;27.90;78.10;;;;;;6220197;22;20459;-80
2021/07/22 10:52:09;;;;;;;8.93;8.10;;;28.00;76.70;;;;;;6222218;23;20413;-80
2021/07/22 10:54:51;;;;;;;9.20;8.47;;;28.10;72.60;;;;;;6222869;23;20491;-80
2021/07/22 10:57:38;;;;;;;7.60;7.00;;;28.10;71.40;;;;;;6222002;23;20997;-80
2021/07/22 11:00:07;;;;;;;8.87;8.20;;;27.80;71.20;;;;;;6222762;23;20459;-80
2021/07/22 11:02:45;;;;;;;10.30;8.80;;;27.70;73.10;;;;;;6221599;23;20414;-80
2021/07/22 11:05:32;;;;;;;9.33;8.03;;;27.80;73.10;;;;;;6222185;23;20727;-80
2021/07/22 11:08:19;;;;;;;9.03;8.07;;;27.80;74.50;;;;;;6221532;23;20411;-80
2021/07/22 11:10:51;;;;;;;8.30;7.57;;;28.00;75.00;;;;;;6222597;23;20431;-80
2021/07/22 11:13:44;;;;;;;10.33;9.53;;;28.30;74.60;;;;;;6221557;23;20409;-80
2021/07/22 11:16:15;;;;;;;9.73;8.73;;;28.90;78.00;;;;;;6222396;23;20394;-80
2021/07/22 11:18:55;;;;;;;9.83;8.83;;;29.50;75.80;;;;;;6221760;23;20432;-80
2021/07/22 11:21:26;;;;;;;10.20;9.40;;;30.00;68.30;;;;;;6221817;23;20395;-80
2021/07/22 11:24:03;;;;;;;10.27;9.43;;;30.10;67.70;;;;;;6222005;23;20414;-80
2021/07/22 11:26:31;;;;;;;9.87;8.90;;;30.30;65.60;;;;;;6222435;23;20477;-80
2021/07/22 11:29:01;;;;;;;9.97;9.17;;;30.50;65.60;;;;;;6221662;23;20431;-80
2021/07/22 11:31:30;;;;;;;10.20;9.30;;;30.60;65.20;;;;;;6222460;23;20411;-80
2021/07/22 11:34:01;;;;;;;10.83;9.60;;;30.90;64.80;;;;;;6223470;23;20473;-80
2021/07/22 11:36:29;;;;;;;9.30;8.50;;;31.10;61.70;;;;;;6222295;23;20391;-80
2021/07/22 11:38:57;;;;;;;10.03;9.23;;;31.40;65.40;;;;;;6222138;23;20953;-81
2021/07/22 11:41:24;;;;;;;9.77;8.87;;;31.90;64.40;;;;;;6224361;23;20416;-82
2021/07/22 11:43:55;;;;;;;10.70;9.70;;;32.50;66.30;;;;;;6224707;23;20416;-80
2021/07/22 11:46:42;;;;;;;9.90;9.10;;;33.10;64.50;;;;;;6225878;23;20396;-80
2021/07/22 11:49:10;;;;;;;10.53;9.63;;;33.70;61.70;;;;;;6220964;23;21070;-81
2021/07/22 11:51:39;;;;;;;10.10;9.33;;;34.20;55.10;;;;;;6221040;23;20409;-81
2021/07/22 11:54:07;;;;;;;10.00;9.20;;;34.30;55.30;;;;;;6221296;23;20423;-81
2021/07/22 11:56:35;;;;;;;11.33;10.20;;;34.60;54.70;;;;;;6221928;23;20405;-80
2021/07/22 11:59:06;;;;;;;10.43;9.47;;;34.90;53.20;;;;;;6221429;23;20439;-80
2021/07/22 12:01:34;;;;;;;10.13;9.30;;;35.00;52.70;;;;;;6221573;23;20398;-80
2021/07/22 12:04:01;;;;;;;11.53;10.43;;;35.20;52.10;;;;;;6221457;23;20409;-80
2021/07/22 12:06:29;;;;;;;9.70;8.90;;;35.60;54.30;;;;;;6221083;23;20413;-80
2021/07/22 12:09:04;;;;;;;9.83;8.83;;;35.90;52.20;;;;;;6221174;23;20426;-80
2021/07/22 12:11:42;;;;;;;9.40;8.63;;;36.30;51.20;;;;;;6221680;23;20404;-80
2021/07/22 12:14:09;;;;;;;10.60;9.67;;;36.60;51.60;;;;;;6220256;23;20393;-82
2021/07/22 12:16:37;;;;;;;10.27;9.47;;;37.00;51.60;;;;;;6219557;23;20411;-82
2021/07/22 12:19:04;;;;;;;9.80;9.00;;;37.50;49.70;;;;;;6224837;23;20435;-82
2021/07/22 12:21:31;;;;;;;11.27;10.27;;;37.80;47.20;;;;;;6225476;23;20737;-82
2021/07/22 12:24:16;;;;;;;10.60;9.80;;;37.60;45.30;;;;;;6227277;23;20405;-82
2021/07/22 12:26:44;;;;;;;10.87;9.87;;;37.40;46.00;;;;;;6220041;23;20385;-81
2021/07/22 12:29:12;;;;;;;9.77;8.97;;;37.10;46.30;;;;;;6217898;23;20451;-82
2021/07/22 12:31:40;;;;;;;10.10;9.30;;;36.90;47.10;;;;;;6222949;23;20416;-83
2021/07/22 12:34:09;;;;;;;8.80;8.20;;;36.90;46.20;;;;;;6222110;23;20471;-81
2021/07/22 12:36:37;;;;;;;9.87;8.87;;;36.90;46.30;;;;;;6222817;23;20408;-82
2021/07/22 12:39:11;;;;;;;10.77;9.63;;;36.80;46.70;;;;;;6220385;23;20433;-82
2021/07/22 12:41:38;;;;;;;9.83;9.03;;;36.70;46.10;;;;;;6219357;23;20409;-82
2021/07/22 12:44:07;;;;;;;11.60;10.60;;;36.70;46.80;;;;;;6220159;23;20408;-81
2021/07/22 12:46:35;;;;;;;10.43;9.53;;;36.80;45.40;;;;;;6220435;23;20409;-82
2021/07/22 12:49:02;;;;;;;11.57;10.43;;;36.90;45.60;;;;;;6220360;23;20451;-82